Time,TemperatureF,DewpointF,PressureIn,WindDirection,WindDirectionDegrees,WindSpeedMPH,WindSpeedGustMPH,Humidity,HourlyPrecipIn,Conditions,Clouds,dailyrainin,SoftwareType,DateUTC
2013-04-14 00:11:00,73.6,69.0,29.95,NE,56,0.0,0.0,85,0.00,,,0.00,weatherlink.com 1.10,2013-04-14 04:11:00,
2013-04-14 00:56:00,75.3,71.0,29.95,NE,56,0.0,0.0,87,0.00,,,0.00,weatherlink.com 1.10,2013-04-14 04:56:00,
2013-04-14 01:26:00,74.0,70.0,29.94,East,98,0.0,0.0,87,0.00,,,0.00,weatherlink.com 1.10,2013-04-14 05:26:00,
2013-04-14 01:41:00,73.6,70.0,29.94,East,98,0.0,0.0,87,0.00,,,0.00,weatherlink.com 1.10,2013-04-14 05:41:00,
2013-04-14 01:56:00,73.0,69.0,29.93,East,97,0.0,0.0,88,0.00,,,0.00,weatherlink.com 1.10,2013-04-14 05:56:00,
2013-04-14 02:11:00,72.9,69.0,29.93,East,97,0.0,0.0,88,0.00,,,0.00,weatherlink.com 1.10,2013-04-14 06:11:00,
2013-04-14 02:26:00,73.0,69.0,29.93,East,98,0.0,0.0,88,0.00,,,0.00,weatherlink.com 1.10,2013-04-14 06:26:00,
2013-04-14 02:41:00,72.8,69.0,29.92,East,98,0.0,0.0,88,0.00,,,0.00,weatherlink.com 1.10,2013-04-14 06:41:00,
2013-04-14 02:56:00,72.4,69.0,29.92,East,97,0.0,0.0,89,0.00,,,0.00,weatherlink.com 1.10,2013-04-14 06:56:00,
2013-04-14 03:11:00,72.0,69.0,29.92,East,98,0.0,0.0,89,0.00,,,0.00,weatherlink.com 1.10,2013-04-14 07:11:00,
2013-04-14 03:26:00,72.3,69.0,29.92,ESE,113,0.0,5.0,89,0.00,,,0.00,weatherlink.com 1.10,2013-04-14 07:26:00,
2013-04-14 03:41:00,72.0,69.0,29.92,SSW,207,0.0,0.0,89,0.00,,,0.00,weatherlink.com 1.10,2013-04-14 07:41:00,
2013-04-14 03:56:00,71.7,68.0,29.92,SE,144,0.0,0.0,89,0.00,,,0.00,weatherlink.com 1.10,2013-04-14 07:56:00,
2013-04-14 04:11:00,71.3,69.0,29.92,ESE,105,0.0,0.0,91,0.00,,,0.00,weatherlink.com 1.10,2013-04-14 08:11:00,
2013-04-14 04:26:00,71.3,69.0,29.91,East,93,0.0,0.0,91,0.00,,,0.00,weatherlink.com 1.10,2013-04-14 08:26:00,
2013-04-14 04:41:00,71.3,69.0,29.91,ESE,113,0.0,0.0,92,0.00,,,0.00,weatherlink.com 1.10,2013-04-14 08:41:00,
2013-04-14 05:11:00,70.9,69.0,29.91,East,92,0.0,0.0,93,0.00,,,0.00,weatherlink.com 1.10,2013-04-14 09:11:00,
2013-04-14 05:26:00,70.8,69.0,29.91,ESE,114,0.0,0.0,94,0.00,,,0.00,weatherlink.com 1.10,2013-04-14 09:26:00,
2013-04-14 05:41:00,70.8,69.0,29.90,East,94,0.0,0.0,94,0.00,,,0.00,weatherlink.com 1.10,2013-04-14 09:41:00,
2013-04-14 05:56:00,70.5,69.0,29.91,East,84,0.0,0.0,94,0.00,,,0.00,weatherlink.com 1.10,2013-04-14 09:56:00,
2013-04-14 06:11:00,70.5,69.0,29.90,SE,145,0.0,0.0,94,0.00,,,0.00,weatherlink.com 1.10,2013-04-14 10:11:00,
2013-04-14 06:26:00,70.4,69.0,29.90,ESE,118,0.0,0.0,94,0.00,,,0.00,weatherlink.com 1.10,2013-04-14 10:26:00,
2013-04-14 06:42:00,70.4,69.0,29.90,SSE,158,0.0,3.0,94,0.00,,,0.00,weatherlink.com 1.10,2013-04-14 10:42:00,
2013-04-14 06:57:00,70.4,69.0,29.90,East,88,0.0,3.0,94,0.00,,,0.00,weatherlink.com 1.10,2013-04-14 10:57:00,
2013-04-14 07:12:00,70.4,69.0,29.91,ESE,121,0.0,0.0,94,0.00,,,0.00,weatherlink.com 1.10,2013-04-14 11:12:00,
2013-04-14 07:27:00,70.4,69.0,29.91,SE,134,0.0,0.0,94,0.00,,,0.00,weatherlink.com 1.10,2013-04-14 11:27:00,
2013-04-14 07:57:00,71.6,70.0,29.92,SE,141,0.0,0.0,94,0.00,,,0.00,weatherlink.com 1.10,2013-04-14 11:57:00,
2013-04-14 08:12:00,71.9,70.0,29.92,ESE,122,0.0,0.0,94,0.00,,,0.00,weatherlink.com 1.10,2013-04-14 12:12:00,
2013-04-14 08:27:00,72.3,70.0,29.92,SE,139,0.0,0.0,93,0.00,,,0.00,weatherlink.com 1.10,2013-04-14 12:27:00,
2013-04-14 08:42:00,73.4,71.0,29.92,SE,129,0.0,0.0,93,0.00,,,0.00,weatherlink.com 1.10,2013-04-14 12:42:00,
2013-04-14 08:57:00,76.0,73.0,29.92,SSE,158,1.0,3.0,90,0.00,,,0.00,weatherlink.com 1.10,2013-04-14 12:57:00,
2013-04-14 09:12:00,78.3,74.0,29.93,SSE,148,0.0,3.0,87,0.00,,,0.00,weatherlink.com 1.10,2013-04-14 13:12:00,
2013-04-14 09:27:00,79.2,75.0,29.93,SE,143,3.0,6.0,86,0.00,,,0.00,weatherlink.com 1.10,2013-04-14 13:27:00,
2013-04-14 09:42:00,80.4,75.0,29.93,SSW,207,4.0,6.0,84,0.00,,,0.00,weatherlink.com 1.10,2013-04-14 13:42:00,
2013-04-14 09:57:00,81.1,76.0,29.93,SE,143,1.0,5.0,83,0.00,,,0.00,weatherlink.com 1.10,2013-04-14 13:57:00,
2013-04-14 10:12:00,82.1,76.0,29.93,South,188,2.0,8.0,81,0.00,,,0.00,weatherlink.com 1.10,2013-04-14 14:12:00,
2013-04-14 10:27:00,82.6,76.0,29.93,SE,143,2.0,8.0,79,0.00,,,0.00,weatherlink.com 1.10,2013-04-14 14:27:00,
2013-04-14 10:42:00,82.8,75.0,29.93,SSW,198,5.0,10.0,78,0.00,,,0.00,weatherlink.com 1.10,2013-04-14 14:42:00,
2013-04-14 10:57:00,83.3,75.0,29.94,ESE,104,3.0,7.0,77,0.00,,,0.00,weatherlink.com 1.10,2013-04-14 14:57:00,
2013-04-14 11:12:00,84.3,75.0,29.94,SSW,205,3.0,8.0,74,0.00,,,0.00,weatherlink.com 1.10,2013-04-14 15:12:00,
2013-04-14 11:42:00,85.7,77.0,29.94,SSE,148,2.0,8.0,74,0.00,,,0.00,weatherlink.com 1.10,2013-04-14 15:42:00,
2013-04-14 11:57:00,85.1,76.0,29.94,SW,236,1.0,10.0,75,0.00,,,0.00,weatherlink.com 1.10,2013-04-14 15:57:00,
2013-04-14 12:12:00,86.4,76.0,29.93,SW,217,7.0,8.0,72,0.00,,,0.00,weatherlink.com 1.10,2013-04-14 16:12:00,
2013-04-14 12:27:00,86.4,76.0,29.93,SW,231,4.0,10.0,71,0.00,,,0.00,weatherlink.com 1.10,2013-04-14 16:27:00,
2013-04-14 12:42:00,85.7,76.0,29.93,SW,217,2.0,11.0,73,0.00,,,0.00,weatherlink.com 1.10,2013-04-14 16:42:00,
2013-04-14 12:57:00,86.4,76.0,29.93,West,269,6.0,11.0,70,0.00,,,0.00,weatherlink.com 1.10,2013-04-14 16:57:00,
2013-04-14 13:12:00,86.1,76.0,29.92,South,183,8.0,12.0,72,0.00,,,0.00,weatherlink.com 1.10,2013-04-14 17:12:00,
2013-04-14 13:42:00,86.8,76.0,29.91,SW,218,8.0,13.0,69,0.00,,,0.00,weatherlink.com 1.10,2013-04-14 17:42:00,
2013-04-14 13:57:00,87.8,76.0,29.90,WSW,255,3.0,10.0,69,0.00,,,0.00,weatherlink.com 1.10,2013-04-14 17:57:00,
2013-04-14 14:12:00,87.5,76.0,29.90,West,276,5.0,12.0,68,0.00,,,0.00,weatherlink.com 1.10,2013-04-14 18:12:00,
2013-04-14 14:27:00,87.3,75.0,29.89,WSW,245,6.0,12.0,67,0.00,,,0.00,weatherlink.com 1.10,2013-04-14 18:27:00,
2013-04-14 14:42:00,87.4,75.0,29.89,SW,225,7.0,13.0,67,0.00,,,0.00,weatherlink.com 1.10,2013-04-14 18:42:00,
2013-04-14 14:57:00,87.2,75.0,29.88,West,259,5.0,14.0,66,0.00,,,0.00,weatherlink.com 1.10,2013-04-14 18:57:00,
2013-04-14 15:12:00,86.8,74.0,29.87,SSE,166,4.0,15.0,66,0.00,,,0.00,weatherlink.com 1.10,2013-04-14 19:12:00,
2013-04-14 15:28:00,87.1,74.0,29.87,SW,218,11.0,16.0,66,0.00,,,0.00,weatherlink.com 1.10,2013-04-14 19:28:00,
2013-04-14 15:42:00,87.3,75.0,29.86,South,177,3.0,16.0,66,0.00,,,0.00,weatherlink.com 1.10,2013-04-14 19:42:00,
2013-04-14 15:57:00,87.4,72.0,29.85,WSW,250,4.0,15.0,61,0.00,,,0.00,weatherlink.com 1.10,2013-04-14 19:57:00,
2013-04-14 16:12:00,87.1,72.0,29.85,West,268,3.0,15.0,61,0.00,,,0.00,weatherlink.com 1.10,2013-04-14 20:12:00,
2013-04-14 16:27:00,86.9,72.0,29.84,South,172,7.0,13.0,62,0.00,,,0.00,weatherlink.com 1.10,2013-04-14 20:27:00,
2013-04-14 16:42:00,87.2,72.0,29.84,SW,218,11.0,12.0,60,0.00,,,0.00,weatherlink.com 1.10,2013-04-14 20:42:00,
2013-04-14 16:57:00,86.8,72.0,29.84,WSW,245,3.0,10.0,61,0.00,,,0.00,weatherlink.com 1.10,2013-04-14 20:57:00,
2013-04-14 17:12:00,86.3,71.0,29.84,WSW,253,4.0,13.0,61,0.00,,,0.00,weatherlink.com 1.10,2013-04-14 21:12:00,
2013-04-14 17:27:00,86.4,71.0,29.85,SW,226,6.0,19.0,61,0.00,,,0.00,weatherlink.com 1.10,2013-04-14 21:27:00,
2013-04-14 17:42:00,85.2,71.0,29.86,West,264,3.0,11.0,63,0.00,,,0.00,weatherlink.com 1.10,2013-04-14 21:42:00,
2013-04-14 17:57:00,85.3,72.0,29.86,WSW,256,3.0,11.0,64,0.00,,,0.00,weatherlink.com 1.10,2013-04-14 21:57:00,
2013-04-14 18:12:00,84.3,71.0,29.87,SSW,210,4.0,12.0,65,0.00,,,0.00,weatherlink.com 1.10,2013-04-14 22:12:00,
2013-04-14 18:28:00,83.7,71.0,29.87,West,259,4.0,14.0,66,0.00,,,0.00,weatherlink.com 1.10,2013-04-14 22:28:00,
2013-04-14 18:43:00,83.0,71.0,29.86,SW,219,5.0,14.0,68,0.00,,,0.00,weatherlink.com 1.10,2013-04-14 22:43:00,
2013-04-14 18:57:00,82.1,72.0,29.87,SW,233,3.0,13.0,72,0.00,,,0.00,weatherlink.com 1.10,2013-04-14 22:57:00,
2013-04-14 19:13:00,80.8,73.0,29.88,WSW,252,5.0,12.0,76,0.00,,,0.00,weatherlink.com 1.10,2013-04-14 23:13:00,
2013-04-14 19:28:00,80.3,73.0,29.88,WSW,243,8.0,12.0,79,0.00,,,0.00,weatherlink.com 1.10,2013-04-14 23:28:00,
2013-04-14 19:43:00,79.5,74.0,29.88,SW,226,3.0,10.0,82,0.00,,,0.00,weatherlink.com 1.10,2013-04-14 23:43:00,
2013-04-14 19:58:00,78.8,74.0,29.88,WNW,285,8.0,11.0,84,0.00,,,0.00,weatherlink.com 1.10,2013-04-14 23:58:00,
2013-04-14 20:13:00,78.3,74.0,29.88,WSW,239,4.0,10.0,86,0.00,,,0.00,weatherlink.com 1.10,2013-04-15 00:13:00,
2013-04-14 20:28:00,77.8,74.0,29.89,SSW,201,2.0,7.0,87,0.00,,,0.00,weatherlink.com 1.10,2013-04-15 00:28:00,
2013-04-14 20:43:00,77.6,74.0,29.90,WSW,242,4.0,9.0,88,0.00,,,0.00,weatherlink.com 1.10,2013-04-15 00:43:00,
2013-04-14 20:59:00,77.6,74.0,29.90,WSW,238,2.0,5.0,88,0.00,,,0.00,weatherlink.com 1.10,2013-04-15 00:59:00,
2013-04-14 21:13:00,77.4,74.0,29.91,SW,214,2.0,7.0,89,0.00,,,0.00,weatherlink.com 1.10,2013-04-15 01:13:00,
2013-04-14 21:28:00,77.3,74.0,29.91,South,189,1.0,5.0,89,0.00,,,0.00,weatherlink.com 1.10,2013-04-15 01:28:00,
2013-04-14 21:43:00,77.2,74.0,29.92,SW,229,2.0,5.0,89,0.00,,,0.00,weatherlink.com 1.10,2013-04-15 01:43:00,
2013-04-14 21:58:00,77.4,74.0,29.93,SW,235,1.0,8.0,89,0.00,,,0.00,weatherlink.com 1.10,2013-04-15 01:58:00,
2013-04-14 22:13:00,77.3,74.0,29.93,West,260,3.0,5.0,88,0.00,,,0.00,weatherlink.com 1.10,2013-04-15 02:13:00,
2013-04-14 22:28:00,77.3,73.0,29.94,SSW,212,1.0,4.0,87,0.00,,,0.00,weatherlink.com 1.10,2013-04-15 02:28:00,
2013-04-14 22:43:00,77.0,73.0,29.94,SSW,195,0.0,2.0,86,0.00,,,0.00,weatherlink.com 1.10,2013-04-15 02:43:00,
2013-04-14 22:58:00,76.9,72.0,29.95,WSW,248,0.0,3.0,85,0.00,,,0.00,weatherlink.com 1.10,2013-04-15 02:58:00,
2013-04-14 23:13:00,76.5,72.0,29.96,SSW,201,0.0,0.0,86,0.00,,,0.00,weatherlink.com 1.10,2013-04-15 03:13:00,
2013-04-14 23:28:00,76.5,72.0,29.96,SW,224,0.0,0.0,86,0.00,,,0.00,weatherlink.com 1.10,2013-04-15 03:28:00,
2013-04-14 23:43:00,76.3,72.0,29.96,SW,224,0.0,0.0,87,0.00,,,0.00,weatherlink.com 1.10,2013-04-15 03:43:00,
2013-04-14 23:58:00,76.3,73.0,29.95,SW,224,0.0,0.0,88,0.00,,,0.00,weatherlink.com 1.10,2013-04-15 03:58:00,